Norwich, Connecticut
Current Conditions -  °F | °C
As of 8:56 AM on Saturday 25 Oct 2014 (Local Time) from KGON Reporting Station
Clear Clear  
Wind Chill:   Ceiling: Unl
Heat Index:   Visibility: 10mi
Dew Point:   Wind: 6mph
Humidity: 83%   Direction: 250°WSW
Pressure: 29.81"   Gusts: NA
Location:  41.53°N, 72.08°W
Report Text: KGON 251256Z 25005KT 10SM CLR 09/07 A2981 RMK AO2 SLP094 T00940067
Loading
Personal Weather Stations






























Interactive Weather Map
Tropical Storm Tracking
New forecast layout! Learn more

10-Day Weather Forecast

Advertisements
Track Severe Weather on mobile